Time;durP1;ratioP1;P1;durP2;ratioP2;P2;SDS_P1;SDS_P2;PMS_P1;PMS_P2;Temp;Humidity;BMP_temperature;BMP_pressure;BME280_temperature;BME280_humidity;BME280_pressure;Samples;Min_cycle;Max_cycle;Signal;HPM_P1;HPM_P2
2021/06/30 00:01:18;;;;;;;10.75;3.37;;;;;;;18.34;90.49;99850.56;1733034;82;21197;-78
2021/06/30 00:04:24;;;;;;;12.88;4.35;;;;;;;18.36;90.47;99851.73;1744952;81;21756;-78
2021/06/30 00:07:30;;;;;;;14.70;3.70;;;;;;;18.35;90.16;99849.50;1746578;81;21298;-77
2021/06/30 00:10:35;;;;;;;14.55;4.03;;;;;;;18.38;90.28;99849.55;1744608;81;21371;-78
2021/06/30 00:13:41;;;;;;;20.45;4.12;;;;;;;18.38;89.69;99842.08;1745250;81;21297;-78
2021/06/30 00:16:46;;;;;;;9.08;3.52;;;;;;;18.39;88.90;99842.92;1748393;81;21859;-78
2021/06/30 00:19:52;;;;;;;13.00;3.65;;;;;;;18.38;88.18;99846.78;1741768;81;21209;-77
2021/06/30 00:22:58;;;;;;;11.20;5.00;;;;;;;18.37;87.85;99842.33;1742976;81;21229;-78
2021/06/30 00:26:03;;;;;;;14.73;4.42;;;;;;;18.35;87.51;99848.66;1742752;81;21266;-78
2021/06/30 00:29:10;;;;;;;12.00;4.33;;;;;;;18.31;87.63;99841.91;1739477;81;21855;-78
2021/06/30 00:32:16;;;;;;;10.63;4.90;;;;;;;18.26;87.87;99842.63;1747845;81;21301;-78
2021/06/30 00:35:22;;;;;;;15.48;4.80;;;;;;;18.24;88.17;99839.78;1733344;82;21307;-78
2021/06/30 00:38:28;;;;;;;22.30;5.00;;;;;;;18.20;88.51;99840.78;1734743;82;21312;-78
2021/06/30 00:41:34;;;;;;;18.73;4.83;;;;;;;18.19;88.67;99839.65;1734435;81;21969;-78
2021/06/30 00:44:39;;;;;;;8.93;4.35;;;;;;;18.16;88.58;99836.83;1739618;81;21301;-78
2021/06/30 00:47:44;;;;;;;10.78;4.30;;;;;;;18.12;88.77;99843.38;1733296;83;21851;-78
2021/06/30 00:50:50;;;;;;;11.90;3.80;;;;;;;18.10;89.12;99838.60;1732724;82;21343;-78
2021/06/30 00:53:57;;;;;;;12.00;4.47;;;;;;;18.10;88.94;99852.98;1733835;82;21249;-78
2021/06/30 00:57:04;;;;;;;13.45;4.40;;;;;;;18.00;88.84;99841.10;1733093;82;21382;-78
2021/06/30 01:00:11;;;;;;;10.32;4.30;;;;;;;17.94;89.60;99850.36;1733055;83;21312;-79
2021/06/30 01:03:17;;;;;;;13.32;4.53;;;;;;;17.91;89.62;99849.44;1733841;82;21194;-78
2021/06/30 01:06:23;;;;;;;9.73;4.37;;;;;;;17.87;89.94;99842.68;1734382;82;21249;-78
2021/06/30 01:09:28;;;;;;;10.35;4.25;;;;;;;17.92;90.33;99844.20;1733737;83;21328;-78
2021/06/30 01:12:33;;;;;;;11.25;4.35;;;;;;;17.99;90.38;99852.42;1733021;82;21308;-78
2021/06/30 01:15:37;;;;;;;9.68;3.85;;;;;;;18.03;90.06;99846.72;1733937;82;21303;-78
2021/06/30 01:18:44;;;;;;;17.25;4.05;;;;;;;18.02;89.65;99843.11;1733988;82;21344;-78
2021/06/30 01:21:51;;;;;;;15.65;4.33;;;;;;;18.02;89.53;99851.92;1734595;82;21193;-78
2021/06/30 01:25:00;;;;;;;11.55;4.45;;;;;;;17.99;89.79;99842.19;1732644;81;21759;-78
2021/06/30 01:28:06;;;;;;;12.47;4.47;;;;;;;17.98;90.13;99846.59;1734667;82;21205;-78
2021/06/30 01:31:12;;;;;;;19.42;5.28;;;;;;;17.96;90.39;99850.95;1732899;83;21922;-77
2021/06/30 01:34:19;;;;;;;14.55;4.42;;;;;;;17.96;90.44;99853.72;1734666;82;21316;-78
2021/06/30 01:37:24;;;;;;;13.90;4.28;;;;;;;17.95;90.48;99844.28;1734153;82;21308;-78
2021/06/30 01:40:30;;;;;;;13.05;4.50;;;;;;;17.96;90.48;99852.88;1733792;82;21372;-78
2021/06/30 01:43:35;;;;;;;14.00;4.40;;;;;;;17.95;90.37;99847.89;1733852;82;21257;-78
2021/06/30 01:46:41;;;;;;;11.15;4.55;;;;;;;17.91;90.42;99845.28;1741204;81;21413;-78
2021/06/30 01:49:47;;;;;;;16.57;4.70;;;;;;;17.85;90.19;99847.08;1737408;82;21311;-78
2021/06/30 01:52:52;;;;;;;18.67;3.87;;;;;;;17.82;90.34;99843.92;1735959;82;21328;-78
2021/06/30 01:55:57;;;;;;;16.15;4.30;;;;;;;17.79;90.49;99850.80;1770756;81;21300;-78
2021/06/30 01:59:14;;;;;;;10.13;4.00;;;;;;;17.76;90.12;99854.56;1735800;82;21765;-79
2021/06/30 02:02:20;;;;;;;18.82;4.28;;;;;;;17.82;90.08;99861.37;1771199;81;21780;-78
2021/06/30 02:05:28;;;;;;;12.78;4.25;;;;;;;17.93;89.38;99863.89;1737718;82;21174;-78
2021/06/30 02:08:33;;;;;;;14.65;4.83;;;;;;;17.96;88.77;99867.55;1770109;81;21831;-78
2021/06/30 02:11:40;;;;;;;13.05;4.10;;;;;;;18.01;88.57;99871.00;1736347;82;21201;-78
2021/06/30 02:14:45;;;;;;;12.13;4.30;;;;;;;18.07;88.17;99870.08;1708151;84;21316;-78
2021/06/30 02:17:50;;;;;;;7.87;4.05;;;;;;;18.23;87.76;99879.62;1770984;81;21296;-78
2021/06/30 02:20:56;;;;;;;11.55;4.37;;;;;;;18.53;87.22;99879.00;1737133;82;21343;-77
2021/06/30 02:24:02;;;;;;;15.43;4.35;;;;;;;18.94;85.82;99888.89;1737717;82;21301;-78
2021/06/30 02:27:08;;;;;;;10.23;3.60;;;;;;;19.32;84.33;99888.36;1737207;82;21825;-78
2021/06/30 02:30:20;;;;;;;9.65;4.25;;;;;;;19.72;82.76;99888.97;1770322;81;21177;-78
2021/06/30 02:33:26;;;;;;;12.50;4.55;;;;;;;20.07;80.99;99885.48;1737724;82;21304;-78
2021/06/30 02:36:32;;;;;;;10.70;3.75;;;;;;;20.49;79.32;99889.33;1770325;81;21832;-77
2021/06/30 02:39:39;;;;;;;15.28;3.70;;;;;;;20.88;77.58;99891.63;1737679;82;21497;-77
2021/06/30 02:42:43;;;;;;;11.10;3.98;;;;;;;21.26;75.87;99898.30;1707091;84;21359;-78
2021/06/30 02:45:50;;;;;;;7.58;3.40;;;;;;;21.60;74.50;99892.70;1770068;81;21224;-78
2021/06/30 02:48:56;;;;;;;8.30;3.62;;;;;;;21.95;72.90;99897.28;1736798;82;21340;-78
2021/06/30 02:52:02;;;;;;;11.93;4.20;;;;;;;22.33;71.38;99908.02;1736764;82;21391;-77
2021/06/30 02:55:08;;;;;;;10.28;4.25;;;;;;;22.68;69.76;99901.95;1737430;82;21316;-78
2021/06/30 02:58:14;;;;;;;16.67;4.60;;;;;;;22.99;68.45;99899.41;1707190;84;21433;-78
2021/06/30 03:01:20;;;;;;;12.00;4.30;;;;;;;23.29;67.32;99897.92;1708191;84;21812;-78
2021/06/30 03:04:25;;;;;;;13.93;4.60;;;;;;;23.59;66.20;99898.09;1770465;81;21807;-78
2021/06/30 03:07:32;;;;;;;11.97;4.15;;;;;;;23.87;65.44;99901.59;1735450;82;21284;-78
2021/06/30 03:10:38;;;;;;;13.53;4.65;;;;;;;24.11;64.61;99900.55;1737257;82;21219;-77
2021/06/30 03:13:44;;;;;;;12.88;4.42;;;;;;;24.38;63.75;99901.20;1706661;84;21359;-78
2021/06/30 03:16:50;;;;;;;14.47;3.83;;;;;;;24.58;63.27;99901.77;1769046;81;21323;-78
2021/06/30 03:19:55;;;;;;;11.75;4.15;;;;;;;24.76;63.06;99902.34;1737636;82;21741;-78
2021/06/30 03:23:01;;;;;;;11.05;4.60;;;;;;;24.90;62.65;99888.91;1707231;84;21212;-78
2021/06/30 03:26:07;;;;;;;14.68;3.80;;;;;;;25.05;62.18;99890.00;1768363;81;21335;-78
2021/06/30 03:29:06;;;;;;;10.82;3.98;;;;;;;25.15;62.07;99885.81;1737255;82;21343;-78
2021/06/30 03:32:13;;;;;;;8.50;3.87;;;;;;;25.30;62.11;99888.57;1707037;84;21285;-78
2021/06/30 03:35:19;;;;;;;9.03;3.70;;;;;;;25.40;61.49;99893.30;1769058;81;22090;-78
2021/06/30 03:38:24;;;;;;;12.47;4.12;;;;;;;25.55;61.80;99889.61;1737233;82;21495;-78
2021/06/30 03:41:29;;;;;;;10.25;3.98;;;;;;;25.73;61.65;99888.41;1708334;84;21311;-78
2021/06/30 03:44:35;;;;;;;8.63;4.50;;;;;;;25.91;59.52;99888.37;1770278;81;21252;-78
2021/06/30 03:47:42;;;;;;;14.20;3.45;;;;;;;26.05;58.71;99890.55;1735991;82;21198;-78
2021/06/30 03:50:47;;;;;;;9.35;3.08;;;;;;;26.21;56.97;99893.55;1735433;82;21332;-78
2021/06/30 03:53:53;;;;;;;6.97;2.95;;;;;;;26.37;55.96;99897.08;1768924;81;21324;-78
2021/06/30 03:57:00;;;;;;;10.50;2.98;;;;;;;26.53;54.84;99900.63;1737689;82;21868;-78
2021/06/30 04:00:05;;;;;;;9.78;3.37;;;;;;;26.65;54.25;99896.90;1707698;84;21387;-79
2021/06/30 04:03:11;;;;;;;7.30;3.35;;;;;;;26.70;55.15;99900.49;1769593;81;21196;-79
2021/06/30 04:06:16;;;;;;;13.93;3.80;;;;;;;26.62;55.27;99902.52;1736943;82;21205;-79
2021/06/30 04:09:25;;;;;;;11.63;3.98;;;;;;;26.54;57.09;99904.56;1708184;84;21316;-79
2021/06/30 04:12:30;;;;;;;8.25;4.08;;;;;;;26.55;58.09;99902.59;1768187;81;21215;-79
2021/06/30 04:15:38;;;;;;;8.65;4.10;;;;;;;26.52;57.99;99905.40;1736282;82;21815;-79
2021/06/30 04:18:43;;;;;;;13.05;4.12;;;;;;;26.36;58.61;99902.41;1770028;81;21288;-79
2021/06/30 04:21:49;;;;;;;6.78;3.83;;;;;;;26.19;60.47;99906.42;1737362;82;21304;-79
2021/06/30 04:24:54;;;;;;;9.68;3.95;;;;;;;26.18;60.21;99908.13;1736941;82;21309;-79
2021/06/30 04:28:01;;;;;;;16.67;5.20;;;;;;;26.15;58.85;99915.14;1737193;82;21339;-78
2021/06/30 04:31:06;;;;;;;8.43;5.03;;;;;;;26.14;59.34;99913.47;1769630;81;21307;-79
2021/06/30 04:34:12;;;;;;;10.80;5.53;;;;;;;26.11;59.91;99911.27;1736034;82;21391;-78
2021/06/30 04:37:17;;;;;;;10.03;4.90;;;;;;;26.16;60.06;99914.56;1708187;84;21265;-78
2021/06/30 04:40:23;;;;;;;13.40;5.03;;;;;;;26.31;60.03;99915.91;1769414;81;21874;-78
2021/06/30 04:43:29;;;;;;;13.62;4.83;;;;;;;26.43;59.89;99914.16;1735877;82;21712;-79
2021/06/30 04:46:35;;;;;;;5.08;4.22;;;;;;;26.49;59.07;99918.63;1736211;82;21953;-79
2021/06/30 04:49:41;;;;;;;9.15;4.87;;;;;;;26.51;59.61;99921.96;1736592;82;21304;-79
2021/06/30 04:52:47;;;;;;;12.63;4.70;;;;;;;26.52;59.76;99924.20;1702832;84;21351;-79
2021/06/30 04:55:53;;;;;;;9.15;5.10;;;;;;;26.55;59.97;99923.06;1732249;83;21201;-79
2021/06/30 04:59:01;;;;;;;6.90;5.30;;;;;;;26.61;59.55;99924.69;1733910;82;21360;-78
2021/06/30 05:02:06;;;;;;;6.53;4.95;;;;;;;26.76;59.47;99927.93;1734413;82;21894;-78
2021/06/30 05:05:14;;;;;;;7.75;5.53;;;;;;;26.87;59.64;99928.71;1733027;82;21312;-78
2021/06/30 05:08:18;;;;;;;13.53;5.97;;;;;;;26.93;59.72;99933.97;1734297;82;21194;-78
2021/06/30 05:11:24;;;;;;;7.50;5.60;;;;;;;27.03;59.90;99931.64;1753836;81;21322;-78
2021/06/30 05:14:30;;;;;;;15.10;5.42;;;;;;;27.17;60.40;99936.87;1739559;80;21165;-78
2021/06/30 05:17:37;;;;;;;11.50;6.30;;;;;;;27.30;60.65;99933.11;1749407;81;21795;-78
2021/06/30 05:20:43;;;;;;;10.30;6.22;;;;;;;27.42;60.52;99934.36;1742224;80;21158;-78
2021/06/30 05:23:49;;;;;;;8.13;5.87;;;;;;;27.57;59.21;99935.33;1761609;81;21629;-79
2021/06/30 05:26:54;;;;;;;7.58;6.15;;;;;;;27.70;59.22;99932.64;1755653;81;21308;-79
2021/06/30 05:29:59;;;;;;;10.50;4.30;;;;;;;27.84;58.64;99933.36;1735052;81;21359;-79
2021/06/30 05:33:04;;;;;;;7.92;4.35;;;;;;;28.00;57.64;99939.07;1744394;81;21348;-79
2021/06/30 05:36:11;;;;;;;9.25;5.08;;;;;;;28.14;56.09;99935.79;1744482;81;21260;-79
2021/06/30 05:39:18;;;;;;;9.55;5.08;;;;;;;28.33;56.95;99939.19;1697655;83;21194;-78
2021/06/30 05:42:23;;;;;;;10.03;5.45;;;;;;;28.45;57.08;99939.59;1735181;81;21768;-78
2021/06/30 05:45:30;;;;;;;13.85;5.00;;;;;;;28.51;54.64;99944.85;1713082;82;21304;-79
2021/06/30 05:48:36;;;;;;;9.45;4.80;;;;;;;28.50;53.89;99938.10;1699874;83;21853;-79
2021/06/30 05:51:42;;;;;;;12.25;5.40;;;;;;;28.62;52.04;99944.11;1761963;79;21303;-79
2021/06/30 05:54:48;;;;;;;13.00;5.12;;;;;;;28.62;52.04;99944.11;1748812;81;21331;-79
2021/06/30 05:57:53;;;;;;;6.15;3.70;;;;;;;28.66;52.54;99938.72;1741624;82;21658;-79
2021/06/30 06:00:58;;;;;;;13.53;4.08;;;;;;;28.68;49.21;99946.27;1777842;79;21668;-79
2021/06/30 06:04:04;;;;;;;7.58;3.10;;;;;;;28.63;48.58;99948.59;1776029;79;21272;-79
2021/06/30 06:07:11;;;;;;;5.92;3.52;;;;;;;28.61;49.20;99946.67;1749744;80;22248;-79
2021/06/30 06:10:17;;;;;;;11.73;3.37;;;;;;;28.59;48.60;99940.49;1710274;83;21371;-78
2021/06/30 06:13:22;;;;;;;7.03;3.08;;;;;;;28.60;48.28;99940.75;1713698;82;21305;-78
2021/06/30 06:16:28;;;;;;;7.97;2.90;;;;;;;28.62;48.01;99938.48;1723332;82;21834;-79
2021/06/30 06:19:33;;;;;;;5.87;3.17;;;;;;;28.61;48.10;99930.36;1727173;81;21264;-78
2021/06/30 06:22:38;;;;;;;8.15;2.87;;;;;;;28.61;48.10;99930.36;1734680;81;21257;-79
2021/06/30 06:25:43;;;;;;;5.55;3.47;;;;;;;28.74;48.31;99933.78;1735702;82;21316;-78
2021/06/30 06:28:49;;;;;;;7.17;2.67;;;;;;;28.89;47.78;99929.88;1743895;81;21843;-79
2021/06/30 06:31:59;;;;;;;6.60;3.10;;;;;;;28.94;47.61;99934.88;1735554;81;21342;-79
2021/06/30 06:35:05;;;;;;;6.33;2.90;;;;;;;28.98;48.29;99936.52;1771587;79;21271;-78
2021/06/30 06:38:10;;;;;;;10.93;3.20;;;;;;;29.11;49.10;99935.72;1784892;79;21283;-78
2021/06/30 06:41:16;;;;;;;5.45;2.80;;;;;;;29.28;47.32;99935.98;1771653;79;21300;-79
2021/06/30 06:44:22;;;;;;;5.97;2.52;;;;;;;29.50;45.66;99934.44;1782081;79;21174;-78
2021/06/30 06:47:27;;;;;;;4.70;2.40;;;;;;;29.50;45.66;99934.44;1784832;79;21205;-78
2021/06/30 06:50:32;;;;;;;6.45;2.92;;;;;;;29.64;45.55;99918.44;1785809;79;21276;-79
2021/06/30 06:53:40;;;;;;;3.25;2.20;;;;;;;29.64;45.55;99918.44;1743974;80;21780;-79
2021/06/30 06:56:45;;;;;;;3.10;2.05;;;;;;;29.79;45.18;99922.92;1774511;80;21443;-79
2021/06/30 06:59:50;;;;;;;3.10;2.02;;;;;;;29.92;44.32;99924.04;1777858;80;21335;-79
2021/06/30 07:02:54;;;;;;;2.67;2.27;;;;;;;30.06;43.72;99924.86;1742184;82;21299;-79
2021/06/30 07:05:59;;;;;;;3.27;2.00;;;;;;;30.16;42.01;99921.88;1776208;80;21680;-79
2021/06/30 07:09:06;;;;;;;4.67;2.22;;;;;;;30.17;41.04;99922.13;1772423;80;21295;-79
2021/06/30 07:12:15;;;;;;;;;;;;;;;30.13;41.25;99915.98;1741976;82;21304;-79
2021/06/30 07:15:24;;;;;;;9.00;2.10;;;;;;;30.15;41.13;99920.18;1708691;82;20201;-79
2021/06/30 07:18:29;;;;;;;4.70;2.75;;;;;;;30.20;44.16;99915.00;1704614;83;21306;-79
2021/06/30 07:21:35;;;;;;;4.33;2.30;;;;;;;30.34;43.99;99914.39;1702641;83;21255;-79
2021/06/30 07:24:41;;;;;;;3.47;2.02;;;;;;;30.46;42.21;99911.86;1707384;82;21158;-79
2021/06/30 07:27:47;;;;;;;5.80;2.12;;;;;;;30.56;41.67;99920.66;1703334;83;21309;-79
2021/06/30 07:30:53;;;;;;;3.12;2.12;;;;;;;30.61;42.63;99920.53;1697453;83;21385;-79
2021/06/30 07:33:58;;;;;;;3.58;1.98;;;;;;;30.61;40.76;99914.89;1700597;82;21350;-78
2021/06/30 07:37:05;;;;;;;6.33;2.35;;;;;;;30.59;40.08;99917.20;1696508;82;21234;-79
2021/06/30 07:40:12;;;;;;;10.18;2.17;;;;;;;30.58;40.76;99917.50;1702241;82;21362;-79
2021/06/30 07:43:17;;;;;;;5.50;2.95;;;;;;;30.61;42.40;99916.30;1701014;83;21271;-79
2021/06/30 07:46:24;;;;;;;5.97;2.12;;;;;;;30.72;40.96;99915.49;1694948;83;21878;-79
2021/06/30 07:49:29;;;;;;;4.67;2.27;;;;;;;30.86;41.38;99915.44;1687551;82;21192;-78
2021/06/30 07:52:35;;;;;;;3.62;1.90;;;;;;;31.00;41.34;99914.78;1712600;83;21259;-79
2021/06/30 07:55:41;;;;;;;5.12;2.00;;;;;;;30.98;41.40;99912.88;1686795;85;21370;-79
2021/06/30 07:58:47;;;;;;;3.02;2.20;;;;;;;30.96;40.94;99918.85;1697448;83;21207;-78
2021/06/30 08:01:55;;;;;;;3.60;2.17;;;;;;;31.00;41.22;99917.61;1700796;83;22233;-79
2021/06/30 08:05:01;;;;;;;3.42;2.10;;;;;;;30.99;41.30;99908.30;1701632;83;21194;-79
2021/06/30 08:08:06;;;;;;;3.72;1.80;;;;;;;30.82;38.51;99921.46;1702571;82;21306;-79
2021/06/30 08:11:12;;;;;;;6.78;2.05;;;;;;;30.69;38.25;99914.71;1697110;83;21996;-79
2021/06/30 08:14:17;;;;;;;6.03;2.00;;;;;;;30.74;38.32;99916.03;1675831;83;21312;-78
2021/06/30 08:17:24;;;;;;;5.60;2.37;;;;;;;30.89;39.75;99917.63;1701822;83;21974;-79
2021/06/30 08:20:30;;;;;;;4.90;2.00;;;;;;;31.04;38.33;99911.00;1700777;84;21830;-79
2021/06/30 08:23:35;;;;;;;3.45;1.70;;;;;;;31.15;38.37;99914.95;1701874;84;21376;-78
2021/06/30 08:26:42;;;;;;;6.92;1.98;;;;;;;31.28;39.40;99909.83;1704074;84;21200;-79
2021/06/30 08:29:50;;;;;;;4.22;2.17;;;;;;;31.27;37.97;99913.24;1690523;84;21314;-79
2021/06/30 08:32:56;;;;;;;2.75;2.10;;;;;;;31.23;37.15;99917.84;1692276;84;21299;-78
2021/06/30 08:36:02;;;;;;;2.27;1.70;;;;;;;31.17;37.19;99920.55;1702745;84;21342;-79
2021/06/30 08:39:09;;;;;;;4.62;1.87;;;;;;;31.21;36.64;99920.16;1703090;84;21719;-79
2021/06/30 08:42:15;;;;;;;2.42;1.65;;;;;;;31.13;36.12;99917.28;1701834;84;21331;-78
2021/06/30 08:45:21;;;;;;;2.85;1.52;;;;;;;31.04;37.95;99918.05;1702271;84;21739;-78
2021/06/30 08:48:27;;;;;;;3.00;2.00;;;;;;;31.00;37.51;99914.78;1700464;84;21294;-79
2021/06/30 08:51:33;;;;;;;2.90;2.00;;;;;;;30.97;36.58;99916.28;1702057;84;21291;-79
2021/06/30 08:54:40;;;;;;;2.35;2.00;;;;;;;31.02;38.06;99913.91;1698732;84;22471;-79
2021/06/30 08:57:46;;;;;;;2.83;1.87;;;;;;;31.06;39.32;99912.10;1681443;84;21165;-79
2021/06/30 09:00:52;;;;;;;4.67;1.95;;;;;;;31.13;39.34;99915.29;1701654;84;21335;-78
2021/06/30 09:03:59;;;;;;;4.45;1.87;;;;;;;31.09;38.44;99907.20;1703906;84;21302;-79
2021/06/30 09:07:04;;;;;;;7.42;1.90;;;;;;;31.09;39.95;99906.38;1703191;84;21251;-79
2021/06/30 09:10:11;;;;;;;2.27;1.60;;;;;;;31.11;36.15;99910.55;1699894;84;21200;-78
2021/06/30 09:13:32;;;;;;;4.25;2.15;;;;;;;31.15;36.14;99907.89;1705343;84;21264;-79
2021/06/30 09:16:40;;;;;;;2.90;1.85;;;;;;;31.23;35.43;99907.13;1714599;82;21743;-78
2021/06/30 09:20:07;;;;;;;5.00;1.50;;;;;;;31.27;36.39;99914.66;1715210;82;21180;-79
2021/06/30 09:23:13;;;;;;;2.30;1.40;;;;;;;31.25;37.11;99910.47;1716529;82;21756;-78
2021/06/30 09:26:18;;;;;;;2.10;1.70;;;;;;;31.23;37.48;99915.02;1726947;82;22148;-79
2021/06/30 09:29:26;;;;;;;5.08;1.90;;;;;;;31.25;37.44;99912.72;1724689;82;21279;-80
2021/06/30 09:32:32;;;;;;;4.08;1.60;;;;;;;31.29;35.54;99905.30;1714973;82;21271;-78
2021/06/30 09:35:41;;;;;;;3.12;1.50;;;;;;;31.34;36.16;99907.15;1714782;82;21184;-79
2021/06/30 09:38:48;;;;;;;3.85;2.30;;;;;;;31.31;36.76;99906.38;1732540;82;21669;-79
2021/06/30 09:41:53;;;;;;;4.40;2.08;;;;;;;31.26;36.96;99900.25;1720211;82;21322;-78
2021/06/30 09:45:00;;;;;;;2.90;1.75;;;;;;;31.24;37.97;99901.16;1671632;85;21609;-78
2021/06/30 09:48:05;;;;;;;3.05;1.82;;;;;;;31.32;36.96;99901.55;1655860;85;21286;-78
2021/06/30 09:51:12;;;;;;;2.10;1.67;;;;;;;31.36;35.99;99903.41;1680076;85;21256;-79
2021/06/30 09:54:24;;;;;;;2.95;1.45;;;;;;;31.41;33.89;99901.02;1734065;82;21346;-79
2021/06/30 09:57:30;;;;;;;2.92;1.70;;;;;;;31.49;36.88;99895.99;1733641;82;21295;-78
2021/06/30 10:00:36;;;;;;;1.85;1.40;;;;;;;31.61;34.97;99895.36;1731666;82;21295;-79
2021/06/30 10:03:47;;;;;;;2.98;1.75;;;;;;;31.75;35.15;99893.25;1694518;84;21731;-78
2021/06/30 10:06:55;;;;;;;3.08;1.87;;;;;;;31.79;36.48;99896.50;1680936;85;21219;-79
2021/06/30 10:10:07;;;;;;;2.12;1.72;;;;;;;31.84;34.31;99896.14;1731277;82;21287;-79
2021/06/30 10:13:11;;;;;;;3.83;1.90;;;;;;;31.91;36.12;99891.68;1722513;82;21168;-78
2021/06/30 10:16:19;;;;;;;3.87;1.80;;;;;;;31.93;35.61;99892.75;1723941;82;21850;-79
2021/06/30 10:19:24;;;;;;;5.83;1.87;;;;;;;31.93;34.49;99883.69;1690520;84;21169;-79
2021/06/30 10:22:31;;;;;;;8.60;1.98;;;;;;;31.88;35.21;99885.26;1691781;84;21893;-79
2021/06/30 10:25:37;;;;;;;3.47;1.60;;;;;;;31.77;34.74;99882.46;1697249;84;21782;-79
2021/06/30 10:28:42;;;;;;;10.70;1.85;;;;;;;31.64;32.36;99881.41;1682404;84;21271;-78
2021/06/30 10:31:49;;;;;;;3.50;1.50;;;;;;;31.39;32.09;99881.57;1719910;82;21278;-79
2021/06/30 10:35:02;;;;;;;5.33;2.10;;;;;;;31.23;31.74;99876.88;1720665;82;21271;-79
2021/06/30 10:38:07;;;;;;;3.52;1.77;;;;;;;31.09;32.09;99873.31;1674801;85;21145;-79
2021/06/30 10:44:19;;;;;;;4.05;2.10;;;;;;;31.05;31.66;99856.75;1857364;76;28052;-79
2021/06/30 10:47:54;;;;;;;2.67;2.12;;;;;;;30.97;32.87;99858.97;1822087;77;21616;-79
2021/06/30 10:51:04;;;;;;;4.05;1.90;;;;;;;30.90;33.06;99852.94;1820508;77;21169;-79
2021/06/30 10:54:11;;;;;;;3.20;1.82;;;;;;;30.98;33.55;99841.70;1817120;77;21295;-78
2021/06/30 10:57:37;;;;;;;6.42;2.00;;;;;;;31.08;33.81;99842.00;1813876;79;21330;-79
2021/06/30 11:00:42;;;;;;;2.85;2.10;;;;;;;31.11;36.71;99835.71;1816593;77;21246;-79
2021/06/30 11:04:02;;;;;;;6.35;2.10;;;;;;;31.12;35.73;99837.38;1822662;77;21771;-79
2021/06/30 11:07:24;;;;;;;3.20;1.70;;;;;;;31.11;34.96;99824.99;1770305;80;21373;-79
2021/06/30 11:10:34;;;;;;;5.72;1.60;;;;;;;31.01;32.68;99826.94;1743390;81;21861;-78
2021/06/30 11:14:02;;;;;;;2.80;1.80;;;;;;;30.94;32.18;99827.97;1740411;81;21196;-79
2021/06/30 11:17:07;;;;;;;6.03;2.00;;;;;;;30.96;34.35;99823.40;1742320;81;21604;-79
2021/06/30 11:20:15;;;;;;;5.65;2.12;;;;;;;30.93;34.69;99822.07;1740389;81;21258;-79
2021/06/30 11:23:32;;;;;;;9.78;2.00;;;;;;;30.92;34.57;99819.58;1733364;81;21310;-78
2021/06/30 11:26:43;;;;;;;5.28;2.00;;;;;;;30.93;33.88;99824.06;1734737;81;21306;-77
2021/06/30 11:30:05;;;;;;;3.10;1.57;;;;;;;30.92;33.47;99822.41;1740900;81;21347;-78
2021/06/30 11:33:10;;;;;;;2.50;1.67;;;;;;;30.95;34.53;99818.91;1737070;81;22259;-77
2021/06/30 11:36:16;;;;;;;4.22;1.82;;;;;;;31.03;36.21;99826.61;1758991;80;21343;-77
2021/06/30 11:39:21;;;;;;;3.62;2.00;;;;;;;31.00;35.51;99820.19;1729545;81;21292;-78
2021/06/30 11:42:49;;;;;;;7.50;1.95;;;;;;;30.97;34.55;99822.27;1737485;81;21306;-78
2021/06/30 11:45:54;;;;;;;3.02;1.87;;;;;;;30.93;34.94;99825.48;1697518;83;21279;-79
2021/06/30 11:49:01;;;;;;;3.98;2.10;;;;;;;30.87;36.38;99829.60;1696564;83;21208;-79
2021/06/30 11:52:10;;;;;;;3.10;2.12;;;;;;;30.87;35.34;99825.37;1703610;83;21295;-78
2021/06/30 11:55:16;;;;;;;3.33;1.90;;;;;;;30.89;35.75;99821.05;1700590;83;21865;-78
2021/06/30 11:58:22;;;;;;;5.37;2.10;;;;;;;30.86;35.17;99820.27;1700712;83;21216;-78
2021/06/30 12:01:42;;;;;;;3.08;1.87;;;;;;;30.76;35.40;99817.72;1715190;83;21342;-78
2021/06/30 12:04:46;;;;;;;;;;;;;;;30.73;36.59;99814.98;1702305;83;21235;-79
2021/06/30 12:07:57;;;;;;;2.05;1.65;;;;;;;30.76;34.96;99821.96;1699868;83;20209;-79
2021/06/30 12:11:02;;;;;;;2.37;1.70;;;;;;;30.78;34.42;99820.49;1699179;83;21723;-79
2021/06/30 12:14:19;;;;;;;5.47;2.10;;;;;;;30.82;35.48;99820.69;1699571;83;21323;-79
2021/06/30 12:17:25;;;;;;;3.15;2.00;;;;;;;30.85;36.74;99827.66;1705827;83;21732;-78
2021/06/30 12:20:33;;;;;;;4.87;2.00;;;;;;;30.87;35.61;99832.42;1719413;83;21295;-78
2021/06/30 12:23:38;;;;;;;5.55;1.87;;;;;;;30.89;36.06;99828.11;1706227;83;21315;-78
2021/06/30 12:26:44;;;;;;;1.87;1.70;;;;;;;30.88;34.81;99832.09;1699891;83;21288;-79
2021/06/30 12:29:50;;;;;;;3.45;2.00;;;;;;;30.90;35.14;99826.94;1699976;83;21866;-79
2021/06/30 12:33:02;;;;;;;3.45;1.95;;;;;;;30.91;35.78;99818.75;1691809;85;21244;-79
2021/06/30 12:36:10;;;;;;;3.98;2.22;;;;;;;30.92;36.02;99820.41;1711167;83;21299;-79
2021/06/30 12:39:33;;;;;;;5.62;2.25;;;;;;;30.90;34.09;99819.05;1708174;83;21949;-79
2021/06/30 12:43:06;;;;;;;2.90;1.90;;;;;;;30.76;32.64;99821.38;1695444;83;21606;-78
2021/06/30 12:46:11;;;;;;;8.25;2.47;;;;;;;30.63;31.66;99816.64;1711510;82;21299;-79
2021/06/30 12:49:24;;;;;;;5.58;2.27;;;;;;;30.61;33.90;99811.05;1713613;83;21291;-81
2021/06/30 12:52:30;;;;;;;4.42;2.47;;;;;;;30.58;34.00;99813.09;1713316;83;21828;-78
2021/06/30 12:55:36;;;;;;;5.95;2.50;;;;;;;30.54;35.43;99814.33;1719202;82;21846;-79
2021/06/30 12:58:55;;;;;;;5.47;2.47;;;;;;;30.47;34.21;99817.59;1713790;83;21354;-80
2021/06/30 13:02:01;;;;;;;3.75;2.30;;;;;;;30.39;34.78;99815.53;1714294;83;21243;-80
2021/06/30 13:05:07;;;;;;;5.70;2.50;;;;;;;30.40;36.22;99817.80;1735831;82;21764;-80
2021/06/30 13:08:34;;;;;;;6.15;2.50;;;;;;;30.38;35.08;99820.92;1695466;82;21236;-79
2021/06/30 13:11:59;;;;;;;4.62;2.60;;;;;;;30.34;35.28;99804.95;1801526;79;21339;-79
2021/06/30 13:15:03;;;;;;;4.80;2.10;;;;;;;30.36;36.67;99806.89;1732209;82;21216;-79
2021/06/30 13:18:26;;;;;;;7.35;3.05;;;;;;;30.37;38.10;99810.80;1777572;79;21168;-79
2021/06/30 13:21:39;;;;;;;5.12;2.95;;;;;;;30.36;38.06;99809.72;1770114;81;21546;-79
2021/06/30 13:24:49;;;;;;;7.92;2.70;;;;;;;30.33;35.78;99808.93;1769265;80;21339;-79
2021/06/30 13:28:01;;;;;;;8.98;2.75;;;;;;;30.29;34.75;99800.27;1770615;81;21855;-79
2021/06/30 13:34:28;;;;;;;9.23;2.62;;;;;;;30.25;35.41;99801.51;1769642;81;21303;-79
2021/06/30 13:37:33;;;;;;;13.83;3.02;;;;;;;30.18;34.53;99803.09;1774598;79;21346;-79
2021/06/30 13:40:42;;;;;;;3.98;2.27;;;;;;;30.17;33.94;99802.84;1769738;81;21889;-79
2021/06/30 13:43:49;;;;;;;5.60;2.42;;;;;;;30.17;35.88;99796.63;1771312;81;21311;-79
2021/06/30 13:46:55;;;;;;;5.87;2.83;;;;;;;30.14;36.24;99799.23;1775311;80;22598;-78
2021/06/30 13:50:02;;;;;;;8.20;2.80;;;;;;;30.11;36.57;99796.44;1779380;80;21335;-78
2021/06/30 13:53:06;;;;;;;9.48;2.67;;;;;;;30.11;36.57;99796.44;1779439;80;21311;-79
2021/06/30 13:56:13;;;;;;;4.80;2.47;;;;;;;30.10;36.64;99791.95;1779387;80;21896;-79
2021/06/30 13:59:18;;;;;;;5.80;2.30;;;;;;;30.09;36.50;99791.70;1777974;80;21291;-79
2021/06/30 14:02:24;;;;;;;7.67;2.60;;;;;;;30.06;35.80;99795.15;1779364;80;21598;-79
2021/06/30 14:05:30;;;;;;;4.03;2.45;;;;;;;30.02;36.69;99790.75;1777798;80;21802;-79
2021/06/30 14:08:36;;;;;;;13.32;2.90;;;;;;;29.99;35.78;99786.31;1779448;80;21299;-79
2021/06/30 14:11:43;;;;;;;6.83;2.87;;;;;;;29.93;34.91;99783.37;1778983;80;21326;-79
2021/06/30 14:14:48;;;;;;;18.07;2.70;;;;;;;29.90;35.01;99771.30;1779018;80;21600;-78
2021/06/30 14:17:55;;;;;;;7.67;3.42;;;;;;;29.79;36.84;99763.09;1779254;80;21310;-79
2021/06/30 14:21:00;;;;;;;14.13;3.42;;;;;;;29.75;36.09;99759.23;1779266;80;21343;-79
2021/06/30 14:24:06;;;;;;;7.08;3.30;;;;;;;29.75;36.09;99759.23;1778966;80;21275;-79
2021/06/30 14:27:11;;;;;;;8.03;3.30;;;;;;;29.73;35.68;99757.87;1780353;80;21255;-79
2021/06/30 14:30:20;;;;;;;13.08;2.85;;;;;;;29.70;36.63;99746.67;1780310;80;21327;-79
2021/06/30 14:33:28;;;;;;;11.95;3.00;;;;;;;29.67;37.51;99754.34;1779795;80;21422;-79
2021/06/30 14:36:34;;;;;;;6.58;3.33;;;;;;;29.64;37.57;99755.00;1777920;80;21673;-79
2021/06/30 14:39:39;;;;;;;5.97;3.33;;;;;;;29.64;38.76;99752.18;1779473;80;21303;-78
2021/06/30 14:42:44;;;;;;;8.60;4.03;;;;;;;29.60;38.76;99751.14;1779418;80;21979;-79
2021/06/30 14:45:53;;;;;;;6.60;3.35;;;;;;;29.56;38.16;99742.23;1778551;80;21208;-79